sensor_id;sensor_type;location;lat;lon;timestamp;pressure;altitude;pressure_sealevel;temperature;humidity
21504;BME280;10913;51.992;9.228;2022-07-30T00:01:21;100349.22;;;19.35;99.84
21504;BME280;10913;51.992;9.228;2022-07-30T00:03:46;100344.75;;;19.36;99.36
21504;BME280;10913;51.992;9.228;2022-07-30T00:06:12;100342.88;;;19.38;98.32
21504;BME280;10913;51.992;9.228;2022-07-30T00:08:37;100333.81;;;19.40;97.18
21504;BME280;10913;51.992;9.228;2022-07-30T00:11:03;100334.63;;;19.42;96.04
21504;BME280;10913;51.992;9.228;2022-07-30T00:13:28;100331.00;;;19.43;96.03
21504;BME280;10913;51.992;9.228;2022-07-30T00:15:54;100328.38;;;19.42;96.46
21504;BME280;10913;51.992;9.228;2022-07-30T00:18:19;100325.00;;;19.38;98.45
21504;BME280;10913;51.992;9.228;2022-07-30T00:20:44;100326.19;;;19.31;98.41
21504;BME280;10913;51.992;9.228;2022-07-30T00:23:10;100320.19;;;19.24;98.61
21504;BME280;10913;51.992;9.228;2022-07-30T00:25:35;100315.03;;;19.20;98.96
21504;BME280;10913;51.992;9.228;2022-07-30T00:28:01;100317.84;;;19.17;99.04
21504;BME280;10913;51.992;9.228;2022-07-30T00:30:26;100315.31;;;19.14;99.50
21504;BME280;10913;51.992;9.228;2022-07-30T00:32:51;100321.66;;;19.11;99.64
21504;BME280;10913;51.992;9.228;2022-07-30T00:35:17;100329.75;;;19.10;100.00
21504;BME280;10913;51.992;9.228;2022-07-30T00:37:42;100320.22;;;19.03;100.00
21504;BME280;10913;51.992;9.228;2022-07-30T00:40:08;100324.09;;;18.96;100.00
21504;BME280;10913;51.992;9.228;2022-07-30T00:45:04;100326.78;;;18.96;100.00
21504;BME280;10913;51.992;9.228;2022-07-30T00:47:29;100319.47;;;18.99;100.00
21504;BME280;10913;51.992;9.228;2022-07-30T00:49:55;100325.78;;;18.98;100.00
21504;BME280;10913;51.992;9.228;2022-07-30T00:52:20;100324.09;;;18.96;100.00
21504;BME280;10913;51.992;9.228;2022-07-30T00:54:46;100324.22;;;18.92;100.00
21504;BME280;10913;51.992;9.228;2022-07-30T00:57:11;100325.22;;;18.90;100.00
21504;BME280;10913;51.992;9.228;2022-07-30T00:59:36;100317.22;;;18.88;100.00
21504;BME280;10913;51.992;9.228;2022-07-30T01:02:02;100320.84;;;18.87;100.00
21504;BME280;10913;51.992;9.228;2022-07-30T01:04:27;100314.50;;;18.90;100.00
21504;BME280;10913;51.992;9.228;2022-07-30T01:06:53;100320.66;;;18.92;100.00
21504;BME280;10913;51.992;9.228;2022-07-30T01:09:19;100319.69;;;18.95;100.00
21504;BME280;10913;51.992;9.228;2022-07-30T01:11:44;100311.63;;;18.95;100.00
21504;BME280;10913;51.992;9.228;2022-07-30T01:14:10;100310.84;;;18.92;100.00
21504;BME280;10913;51.992;9.228;2022-07-30T01:16:39;100313.63;;;18.89;100.00
21504;BME280;10913;51.992;9.228;2022-07-30T01:19:10;100317.22;;;18.88;100.00
21504;BME280;10913;51.992;9.228;2022-07-30T01:22:05;100315.56;;;18.86;100.00
21504;BME280;10913;51.992;9.228;2022-07-30T01:24:39;100315.50;;;18.87;100.00
21504;BME280;10913;51.992;9.228;2022-07-30T01:27:07;100323.59;;;18.86;100.00
21504;BME280;10913;51.992;9.228;2022-07-30T01:29:33;100317.47;;;18.82;100.00
21504;BME280;10913;51.992;9.228;2022-07-30T01:32:00;100313.06;;;18.81;100.00
21504;BME280;10913;51.992;9.228;2022-07-30T01:34:28;100319.34;;;18.80;100.00
21504;BME280;10913;51.992;9.228;2022-07-30T01:36:55;100311.38;;;18.79;100.00
21504;BME280;10913;51.992;9.228;2022-07-30T01:39:24;100307.75;;;18.80;100.00
21504;BME280;10913;51.992;9.228;2022-07-30T01:41:52;100305.16;;;18.78;100.00
21504;BME280;10913;51.992;9.228;2022-07-30T01:44:18;100312.38;;;18.76;100.00
21504;BME280;10913;51.992;9.228;2022-07-30T01:46:45;100312.56;;;18.72;100.00
21504;BME280;10913;51.992;9.228;2022-07-30T01:49:10;100309.13;;;18.68;100.00
21504;BME280;10913;51.992;9.228;2022-07-30T01:51:36;100308.31;;;18.66;100.00
21504;BME280;10913;51.992;9.228;2022-07-30T01:54:05;100317.22;;;18.67;100.00
21504;BME280;10913;51.992;9.228;2022-07-30T01:56:34;100311.00;;;18.66;100.00
21504;BME280;10913;51.992;9.228;2022-07-30T01:59:01;100310.94;;;18.68;100.00
21504;BME280;10913;51.992;9.228;2022-07-30T02:01:27;100309.00;;;18.71;100.00
21504;BME280;10913;51.992;9.228;2022-07-30T02:03:52;100311.63;;;18.73;100.00
21504;BME280;10913;51.992;9.228;2022-07-30T02:06:26;100313.38;;;18.74;100.00
21504;BME280;10913;51.992;9.228;2022-07-30T02:09:00;100321.47;;;18.72;100.00
21504;BME280;10913;51.992;9.228;2022-07-30T02:11:27;100315.41;;;18.67;100.00
21504;BME280;10913;51.992;9.228;2022-07-30T02:14:21;100321.81;;;18.63;100.00
21504;BME280;10913;51.992;9.228;2022-07-30T02:16:50;100320.94;;;18.63;100.00
21504;BME280;10913;51.992;9.228;2022-07-30T02:19:18;100329.84;;;18.63;100.00
21504;BME280;10913;51.992;9.228;2022-07-30T02:21:47;100328.91;;;18.64;100.00
21504;BME280;10913;51.992;9.228;2022-07-30T02:24:15;100336.00;;;18.65;100.00
21504;BME280;10913;51.992;9.228;2022-07-30T02:26:48;100331.53;;;18.66;100.00
21504;BME280;10913;51.992;9.228;2022-07-30T02:29:16;100338.69;;;18.65;100.00
21504;BME280;10913;51.992;9.228;2022-07-30T02:31:44;100339.63;;;18.64;100.00
21504;BME280;10913;51.992;9.228;2022-07-30T02:34:10;100340.56;;;18.63;100.00
21504;BME280;10913;51.992;9.228;2022-07-30T02:36:38;100341.59;;;18.59;100.00
21504;BME280;10913;51.992;9.228;2022-07-30T02:39:07;100341.72;;;18.56;100.00
21504;BME280;10913;51.992;9.228;2022-07-30T02:41:34;100346.25;;;18.54;100.00
21504;BME280;10913;51.992;9.228;2022-07-30T02:44:01;100348.91;;;18.54;100.00
21504;BME280;10913;51.992;9.228;2022-07-30T02:46:27;100343.56;;;18.54;100.00
21504;BME280;10913;51.992;9.228;2022-07-30T02:48:53;100345.31;;;18.55;100.00
21504;BME280;10913;51.992;9.228;2022-07-30T02:51:20;100341.75;;;18.54;100.00
21504;BME280;10913;51.992;9.228;2022-07-30T02:53:47;100344.44;;;18.54;100.00
21504;BME280;10913;51.992;9.228;2022-07-30T02:56:14;100341.81;;;18.53;100.00
21504;BME280;10913;51.992;9.228;2022-07-30T02:58:43;100342.81;;;18.50;100.00
21504;BME280;10913;51.992;9.228;2022-07-30T03:01:11;100349.16;;;18.48;100.00
21504;BME280;10913;51.992;9.228;2022-07-30T03:03:39;100341.19;;;18.46;100.00
21504;BME280;10913;51.992;9.228;2022-07-30T03:06:08;100353.63;;;18.47;100.00
21504;BME280;10913;51.992;9.228;2022-07-30T03:08:34;100340.31;;;18.46;100.00
21504;BME280;10913;51.992;9.228;2022-07-30T03:11:00;100351.06;;;18.44;100.00
21504;BME280;10913;51.992;9.228;2022-07-30T03:13:27;100346.63;;;18.43;100.00
21504;BME280;10913;51.992;9.228;2022-07-30T03:15:55;100347.63;;;18.41;100.00
21504;BME280;10913;51.992;9.228;2022-07-30T03:18:22;100349.47;;;18.39;100.00
21504;BME280;10913;51.992;9.228;2022-07-30T03:20:50;100363.81;;;18.38;100.00
21504;BME280;10913;51.992;9.228;2022-07-30T03:23:18;100362.06;;;18.37;100.00
21504;BME280;10913;51.992;9.228;2022-07-30T03:25:51;100371.03;;;18.36;100.00
21504;BME280;10913;51.992;9.228;2022-07-30T03:28:18;100372.88;;;18.34;100.00
21504;BME280;10913;51.992;9.228;2022-07-30T03:30:44;100370.25;;;18.32;100.00
21504;BME280;10913;51.992;9.228;2022-07-30T03:33:10;100370.25;;;18.32;100.00
21504;BME280;10913;51.992;9.228;2022-07-30T03:35:37;100379.16;;;18.33;100.00
21504;BME280;10913;51.992;9.228;2022-07-30T03:38:04;100375.59;;;18.32;100.00
21504;BME280;10913;51.992;9.228;2022-07-30T03:40:30;100382.72;;;18.33;100.00
21504;BME280;10913;51.992;9.228;2022-07-30T03:42:56;100381.84;;;18.33;100.00
21504;BME280;10913;51.992;9.228;2022-07-30T03:45:23;100386.25;;;18.34;100.00
21504;BME280;10913;51.992;9.228;2022-07-30T03:47:49;100379.97;;;18.35;100.00
21504;BME280;10913;51.992;9.228;2022-07-30T03:50:15;100380.84;;;18.35;100.00
21504;BME280;10913;51.992;9.228;2022-07-30T03:52:40;100379.09;;;18.34;100.00
21504;BME280;10913;51.992;9.228;2022-07-30T03:55:08;100382.72;;;18.33;100.00
21504;BME280;10913;51.992;9.228;2022-07-30T03:57:34;100390.78;;;18.32;100.00
21504;BME280;10913;51.992;9.228;2022-07-30T04:00:00;100385.53;;;18.29;100.00
21504;BME280;10913;51.992;9.228;2022-07-30T04:02:26;100385.66;;;18.25;100.00
21504;BME280;10913;51.992;9.228;2022-07-30T04:04:51;100385.75;;;18.22;100.00
21504;BME280;10913;51.992;9.228;2022-07-30T04:07:17;100385.81;;;18.21;100.00
21504;BME280;10913;51.992;9.228;2022-07-30T04:09:42;100386.75;;;18.20;100.00
21504;BME280;10913;51.992;9.228;2022-07-30T04:12:08;100382.25;;;18.20;100.00
21504;BME280;10913;51.992;9.228;2022-07-30T04:14:41;100390.28;;;18.20;100.00
21504;BME280;10913;51.992;9.228;2022-07-30T04:17:29;100389.41;;;18.20;100.00
21504;BME280;10913;51.992;9.228;2022-07-30T04:20:04;100396.66;;;18.18;100.00
21504;BME280;10913;51.992;9.228;2022-07-30T04:22:33;100405.59;;;18.17;100.00
21504;BME280;10913;51.992;9.228;2022-07-30T04:25:00;100401.19;;;18.16;100.00
21504;BME280;10913;51.992;9.228;2022-07-30T04:27:27;100401.19;;;18.16;100.00
21504;BME280;10913;51.992;9.228;2022-07-30T04:29:55;100414.50;;;18.17;100.00
21504;BME280;10913;51.992;9.228;2022-07-30T04:32:21;100416.25;;;18.18;100.00
21504;BME280;10913;51.992;9.228;2022-07-30T04:34:48;100411.75;;;18.19;100.00
21504;BME280;10913;51.992;9.228;2022-07-30T04:37:18;100421.50;;;18.20;100.00
21504;BME280;10913;51.992;9.228;2022-07-30T04:39:43;100433.91;;;18.22;100.00
21504;BME280;10913;51.992;9.228;2022-07-30T04:42:09;100431.22;;;18.22;100.00
21504;BME280;10913;51.992;9.228;2022-07-30T04:44:35;100428.50;;;18.24;100.00
21504;BME280;10913;51.992;9.228;2022-07-30T04:47:01;100443.63;;;18.25;100.00
21504;BME280;10913;51.992;9.228;2022-07-30T04:49:26;100440.88;;;18.27;100.00
21504;BME280;10913;51.992;9.228;2022-07-30T04:51:53;100433.75;;;18.27;100.00
21504;BME280;10913;51.992;9.228;2022-07-30T04:54:20;100441.75;;;18.27;100.00
21504;BME280;10913;51.992;9.228;2022-07-30T04:56:48;100438.22;;;18.27;100.00
21504;BME280;10913;51.992;9.228;2022-07-30T04:59:16;100446.25;;;18.27;100.00
21504;BME280;10913;51.992;9.228;2022-07-30T05:01:44;100447.13;;;18.27;100.00
21504;BME280;10913;51.992;9.228;2022-07-30T05:04:11;100448.00;;;18.28;100.00
21504;BME280;10913;51.992;9.228;2022-07-30T05:06:37;100445.31;;;18.28;100.00
21504;BME280;10913;51.992;9.228;2022-07-30T05:09:04;100448.91;;;18.27;100.00
21504;BME280;10913;51.992;9.228;2022-07-30T05:11:30;100450.66;;;18.28;100.00
21504;BME280;10913;51.992;9.228;2022-07-30T05:13:56;100441.66;;;18.30;100.00
21504;BME280;10913;51.992;9.228;2022-07-30T05:16:21;100443.34;;;18.33;100.00
21504;BME280;10913;51.992;9.228;2022-07-30T05:18:47;100444.19;;;18.35;100.00
21504;BME280;10913;51.992;9.228;2022-07-30T05:21:12;100441.41;;;18.38;100.00
21504;BME280;10913;51.992;9.228;2022-07-30T05:23:38;100444.06;;;18.38;100.00
21504;BME280;10913;51.992;9.228;2022-07-30T05:26:05;100440.44;;;18.39;100.00
21504;BME280;10913;51.992;9.228;2022-07-30T05:28:30;100440.44;;;18.39;100.00
21504;BME280;10913;51.992;9.228;2022-07-30T05:30:56;100443.94;;;18.41;100.00
21504;BME280;10913;51.992;9.228;2022-07-30T05:33:21;100441.25;;;18.41;100.00
21504;BME280;10913;51.992;9.228;2022-07-30T05:35:48;100437.59;;;18.43;100.00
21504;BME280;10913;51.992;9.228;2022-07-30T05:38:14;100435.75;;;18.45;100.00
21504;BME280;10913;51.992;9.228;2022-07-30T05:40:40;100440.97;;;18.48;100.00
21504;BME280;10913;51.992;9.228;2022-07-30T05:43:06;100432.91;;;18.50;100.00
21504;BME280;10913;51.992;9.228;2022-07-30T05:45:31;100435.53;;;18.51;100.00
21504;BME280;10913;51.992;9.228;2022-07-30T05:47:57;100438.16;;;18.53;100.00
21504;BME280;10913;51.992;9.228;2022-07-30T05:50:22;100439.06;;;18.52;100.00
21504;BME280;10913;51.992;9.228;2022-07-30T05:52:48;100439.91;;;18.54;100.00
21504;BME280;10913;51.992;9.228;2022-07-30T05:55:13;100442.50;;;18.55;100.00
21504;BME280;10913;51.992;9.228;2022-07-30T05:57:39;100443.38;;;18.56;100.00
21504;BME280;10913;51.992;9.228;2022-07-30T06:00:08;100448.63;;;18.59;100.00
21504;BME280;10913;51.992;9.228;2022-07-30T06:02:33;100446.78;;;18.61;100.00
21504;BME280;10913;51.992;9.228;2022-07-30T06:04:59;100445.03;;;18.60;100.00
21504;BME280;10913;51.992;9.228;2022-07-30T06:07:25;100453.94;;;18.61;100.00
21504;BME280;10913;51.992;9.228;2022-07-30T06:09:50;100448.53;;;18.62;100.00
21504;BME280;10913;51.992;9.228;2022-07-30T06:12:16;100444.88;;;18.65;100.00
21504;BME280;10913;51.992;9.228;2022-07-30T06:14:42;100452.78;;;18.68;100.00
21504;BME280;10913;51.992;9.228;2022-07-30T06:17:07;100450.06;;;18.69;100.00
21504;BME280;10913;51.992;9.228;2022-07-30T06:19:32;100448.25;;;18.70;100.00
21504;BME280;10913;51.992;9.228;2022-07-30T06:21:58;100448.31;;;18.68;100.00
21504;BME280;10913;51.992;9.228;2022-07-30T06:24:23;100441.91;;;18.72;100.00
21504;BME280;10913;51.992;9.228;2022-07-30T06:26:49;100447.97;;;18.77;100.00
21504;BME280;10913;51.992;9.228;2022-07-30T06:29:14;100449.47;;;18.84;100.00
21504;BME280;10913;51.992;9.228;2022-07-30T06:31:40;100446.63;;;18.89;100.00
21504;BME280;10913;51.992;9.228;2022-07-30T06:34:06;100445.53;;;18.95;100.00
21504;BME280;10913;51.992;9.228;2022-07-30T06:36:31;100450.88;;;18.95;100.00
21504;BME280;10913;51.992;9.228;2022-07-30T06:38:56;100449.13;;;18.93;100.00
21504;BME280;10913;51.992;9.228;2022-07-30T06:41:22;100446.38;;;18.95;100.00
21504;BME280;10913;51.992;9.228;2022-07-30T06:43:47;100451.69;;;18.97;100.00
21504;BME280;10913;51.992;9.228;2022-07-30T06:46:12;100453.34;;;18.99;100.00
21504;BME280;10913;51.992;9.228;2022-07-30T06:48:38;100449.69;;;19.02;100.00
21504;BME280;10913;51.992;9.228;2022-07-30T06:51:03;100450.44;;;19.05;100.00
21504;BME280;10913;51.992;9.228;2022-07-30T06:53:29;100449.44;;;19.08;100.00
21504;BME280;10913;51.992;9.228;2022-07-30T06:55:55;100455.63;;;19.10;100.00
21504;BME280;10913;51.992;9.228;2022-07-30T06:58:20;100446.66;;;19.11;100.00
21504;BME280;10913;51.992;9.228;2022-07-30T07:00:45;100448.34;;;19.13;100.00
21504;BME280;10913;51.992;9.228;2022-07-30T07:03:11;100447.34;;;19.16;100.00
21504;BME280;10913;51.992;9.228;2022-07-30T07:05:36;100454.31;;;19.20;100.00
21504;BME280;10913;51.992;9.228;2022-07-30T07:08:02;100447.09;;;19.22;100.00
21504;BME280;10913;51.992;9.228;2022-07-30T07:10:28;100452.34;;;19.25;100.00
21504;BME280;10913;51.992;9.228;2022-07-30T07:12:54;100449.41;;;19.31;100.00
21504;BME280;10913;51.992;9.228;2022-07-30T07:15:19;100443.81;;;19.37;100.00
21504;BME280;10913;51.992;9.228;2022-07-30T07:17:45;100441.69;;;19.45;100.00
21504;BME280;10913;51.992;9.228;2022-07-30T07:20:10;100442.34;;;19.52;100.00
21504;BME280;10913;51.992;9.228;2022-07-30T07:22:36;100443.97;;;19.56;100.00
21504;BME280;10913;51.992;9.228;2022-07-30T07:25:02;100444.69;;;19.59;100.00
21504;BME280;10913;51.992;9.228;2022-07-30T07:27:27;100444.50;;;19.64;100.00
21504;BME280;10913;51.992;9.228;2022-07-30T07:29:53;100439.97;;;19.66;100.00
21504;BME280;10913;51.992;9.228;2022-07-30T07:32:18;100443.50;;;19.67;100.00
21504;BME280;10913;51.992;9.228;2022-07-30T07:34:44;100442.56;;;19.68;100.00
21504;BME280;10913;51.992;9.228;2022-07-30T07:37:09;100446.06;;;19.70;100.00
21504;BME280;10913;51.992;9.228;2022-07-30T07:39:35;100449.44;;;19.75;100.00
21504;BME280;10913;51.992;9.228;2022-07-30T07:42:00;100450.19;;;19.78;100.00
21504;BME280;10913;51.992;9.228;2022-07-30T07:44:25;100447.28;;;19.83;100.00
21504;BME280;10913;51.992;9.228;2022-07-30T07:46:51;100440.88;;;19.87;100.00
21504;BME280;10913;51.992;9.228;2022-07-30T07:49:16;100447.72;;;19.94;100.00
21504;BME280;10913;51.992;9.228;2022-07-30T07:51:42;100446.66;;;19.98;100.00
21504;BME280;10913;51.992;9.228;2022-07-30T07:54:07;100448.25;;;20.02;100.00
21504;BME280;10913;51.992;9.228;2022-07-30T07:56:32;100443.56;;;20.07;100.00
21504;BME280;10913;51.992;9.228;2022-07-30T07:58:58;100443.19;;;20.16;100.00
21504;BME280;10913;51.992;9.228;2022-07-30T08:01:23;100443.81;;;20.21;100.00
21504;BME280;10913;51.992;9.228;2022-07-30T08:03:48;100439.00;;;20.29;100.00
21504;BME280;10913;51.992;9.228;2022-07-30T08:06:14;100432.16;;;20.43;100.00
21504;BME280;10913;51.992;9.228;2022-07-30T08:08:39;100431.56;;;20.56;100.00
21504;BME280;10913;51.992;9.228;2022-07-30T08:11:05;100443.13;;;20.77;100.00
21504;BME280;10913;51.992;9.228;2022-07-30T08:13:31;100438.31;;;21.03;100.00
21504;BME280;10913;51.992;9.228;2022-07-30T08:15:58;100440.88;;;21.24;100.00
21504;BME280;10913;51.992;9.228;2022-07-30T08:18:24;100429.97;;;21.46;98.82
21504;BME280;10913;51.992;9.228;2022-07-30T08:20:49;100425.91;;;21.74;97.27
21504;BME280;10913;51.992;9.228;2022-07-30T08:23:16;100428.47;;;22.11;95.69
21504;BME280;10913;51.992;9.228;2022-07-30T08:25:43;100425.66;;;22.47;94.43
21504;BME280;10913;51.992;9.228;2022-07-30T08:28:08;100429.72;;;22.72;93.29
21504;BME280;10913;51.992;9.228;2022-07-30T08:30:34;100431.09;;;22.96;91.54
21504;BME280;10913;51.992;9.228;2022-07-30T08:32:59;100425.38;;;23.18;90.68
21504;BME280;10913;51.992;9.228;2022-07-30T08:35:24;100422.50;;;23.52;90.84
21504;BME280;10913;51.992;9.228;2022-07-30T08:37:50;100424.94;;;23.87;91.17
21504;BME280;10913;51.992;9.228;2022-07-30T08:40:17;100422.88;;;24.20;88.05
21504;BME280;10913;51.992;9.228;2022-07-30T08:42:44;100420.66;;;24.57;85.28
21504;BME280;10913;51.992;9.228;2022-07-30T08:45:11;100423.63;;;24.81;83.89
21504;BME280;10913;51.992;9.228;2022-07-30T08:47:39;100425.97;;;24.72;83.39
21504;BME280;10913;51.992;9.228;2022-07-30T08:50:06;100420.84;;;24.82;83.25
21504;BME280;10913;51.992;9.228;2022-07-30T08:52:34;100422.38;;;24.86;81.02
21504;BME280;10913;51.992;9.228;2022-07-30T08:55:00;100425.84;;;24.88;80.42
21504;BME280;10913;51.992;9.228;2022-07-30T08:57:29;100419.03;;;24.97;82.17
21504;BME280;10913;51.992;9.228;2022-07-30T08:59:58;100432.88;;;25.19;80.64
21504;BME280;10913;51.992;9.228;2022-07-30T09:02:25;100428.72;;;25.28;78.70
21504;BME280;10913;51.992;9.228;2022-07-30T09:04:50;100425.03;;;25.29;78.64
21504;BME280;10913;51.992;9.228;2022-07-30T09:07:16;100432.78;;;25.35;79.19
21504;BME280;10913;51.992;9.228;2022-07-30T09:09:41;100428.13;;;25.37;77.76
21504;BME280;10913;51.992;9.228;2022-07-30T09:12:33;100438.47;;;25.30;78.94
21504;BME280;10913;51.992;9.228;2022-07-30T09:17:27;100433.59;;;25.09;79.60
21504;BME280;10913;51.992;9.228;2022-07-30T09:20:03;100430.31;;;25.18;78.69
21504;BME280;10913;51.992;9.228;2022-07-30T09:22:43;100429.19;;;25.34;76.82
21504;BME280;10913;51.992;9.228;2022-07-30T09:25:09;100426.16;;;25.39;75.30
21504;BME280;10913;51.992;9.228;2022-07-30T09:27:45;100427.91;;;25.40;74.51
21504;BME280;10913;51.992;9.228;2022-07-30T09:30:11;100429.84;;;25.38;76.25
21504;BME280;10913;51.992;9.228;2022-07-30T09:35:13;100424.19;;;25.28;76.83
21504;BME280;10913;51.992;9.228;2022-07-30T09:37:39;100433.16;;;25.29;77.44
21504;BME280;10913;51.992;9.228;2022-07-30T09:40:16;100431.81;;;25.22;77.06
21504;BME280;10913;51.992;9.228;2022-07-30T09:42:42;100432.88;;;25.19;76.40
21504;BME280;10913;51.992;9.228;2022-07-30T09:45:13;100427.69;;;25.16;76.54
21504;BME280;10913;51.992;9.228;2022-07-30T09:47:41;100426.06;;;25.14;77.14
21504;BME280;10913;51.992;9.228;2022-07-30T09:52:35;100428.75;;;24.99;76.97
21504;BME280;10913;51.992;9.228;2022-07-30T09:55:01;100434.75;;;24.90;76.79
21504;BME280;10913;51.992;9.228;2022-07-30T09:57:27;100439.28;;;24.90;76.79
21504;BME280;10913;51.992;9.228;2022-07-30T09:59:53;100432.81;;;24.92;78.19
21504;BME280;10913;51.992;9.228;2022-07-30T10:02:18;100433.28;;;24.99;78.89
21504;BME280;10913;51.992;9.228;2022-07-30T10:04:44;100447.09;;;25.09;78.80
21504;BME280;10913;51.992;9.228;2022-07-30T10:07:18;100441.41;;;25.13;78.46
21504;BME280;10913;51.992;9.228;2022-07-30T10:09:46;100445.13;;;25.25;78.48
21504;BME280;10913;51.992;9.228;2022-07-30T10:12:13;100448.41;;;25.30;78.36
21504;BME280;10913;51.992;9.228;2022-07-30T10:14:41;100438.09;;;25.36;77.94
21504;BME280;10913;51.992;9.228;2022-07-30T10:17:09;100444.41;;;25.50;77.43
21504;BME280;10913;51.992;9.228;2022-07-30T10:19:34;100443.31;;;25.66;76.57
21504;BME280;10913;51.992;9.228;2022-07-30T10:22:01;100445.84;;;25.82;75.72
21504;BME280;10913;51.992;9.228;2022-07-30T10:24:27;100445.69;;;25.98;75.00
21504;BME280;10913;51.992;9.228;2022-07-30T10:26:54;100433.38;;;26.19;74.83
21504;BME280;10913;51.992;9.228;2022-07-30T10:29:20;100444.47;;;26.41;74.04
21504;BME280;10913;51.992;9.228;2022-07-30T10:31:49;100430.81;;;26.43;73.13
21504;BME280;10913;51.992;9.228;2022-07-30T10:34:18;100438.31;;;26.52;73.28
21504;BME280;10913;51.992;9.228;2022-07-30T10:36:49;100435.28;;;26.57;73.85
21504;BME280;10913;51.992;9.228;2022-07-30T10:39:20;100435.16;;;26.58;74.24
21504;BME280;10913;51.992;9.228;2022-07-30T10:47:23;100450.78;;;26.55;73.41
21504;BME280;10913;51.992;9.228;2022-07-30T10:55:13;100446.50;;;26.25;73.38
21504;BME280;10913;51.992;9.228;2022-07-30T10:58:07;100444.00;;;26.22;73.16
21504;BME280;10913;51.992;9.228;2022-07-30T11:00:35;100447.88;;;26.18;73.83
21504;BME280;10913;51.992;9.228;2022-07-30T11:03:27;100442.53;;;26.31;73.35
21504;BME280;10913;51.992;9.228;2022-07-30T11:08:39;100433.00;;;26.76;73.78
21504;BME280;10913;51.992;9.228;2022-07-30T11:19:17;100434.94;;;27.72;69.40
21504;BME280;10913;51.992;9.228;2022-07-30T11:21:45;100430.75;;;27.79;68.55
21504;BME280;10913;51.992;9.228;2022-07-30T11:24:42;100424.63;;;27.89;68.22
21504;BME280;10913;51.992;9.228;2022-07-30T11:27:08;100425.59;;;27.76;67.93
21504;BME280;10913;51.992;9.228;2022-07-30T11:32:30;100427.09;;;27.44;67.40
21504;BME280;10913;51.992;9.228;2022-07-30T11:35:19;100426.09;;;27.58;67.29
21504;BME280;10913;51.992;9.228;2022-07-30T11:38:09;100416.19;;;27.81;66.93
21504;BME280;10913;51.992;9.228;2022-07-30T11:43:23;100408.56;;;28.21;65.67
21504;BME280;10913;51.992;9.228;2022-07-30T11:46:14;100416.81;;;28.19;65.70
21504;BME280;10913;51.992;9.228;2022-07-30T11:49:00;100422.09;;;28.09;65.77
21504;BME280;10913;51.992;9.228;2022-07-30T11:51:42;100417.25;;;28.02;64.83
21504;BME280;10913;51.992;9.228;2022-07-30T11:54:08;100420.19;;;27.88;65.07
21504;BME280;10913;51.992;9.228;2022-07-30T11:56:54;100422.00;;;27.76;65.65
21504;BME280;10913;51.992;9.228;2022-07-30T11:59:21;100427.16;;;27.55;66.41
21504;BME280;10913;51.992;9.228;2022-07-30T12:01:51;100427.09;;;27.44;66.75
21504;BME280;10913;51.992;9.228;2022-07-30T12:04:17;100428.88;;;27.32;67.58
21504;BME280;10913;51.992;9.228;2022-07-30T12:06:44;100431.41;;;27.23;68.07
21504;BME280;10913;51.992;9.228;2022-07-30T12:09:10;100428.41;;;27.15;68.09
21504;BME280;10913;51.992;9.228;2022-07-30T12:11:36;100427.31;;;27.04;68.39
21504;BME280;10913;51.992;9.228;2022-07-30T12:14:02;100429.06;;;26.93;68.40
21504;BME280;10913;51.992;9.228;2022-07-30T12:16:31;100427.56;;;26.63;67.76
21504;BME280;10913;51.992;9.228;2022-07-30T12:19:04;100423.22;;;26.61;69.00
21504;BME280;10913;51.992;9.228;2022-07-30T12:21:30;100423.34;;;26.59;69.51
21504;BME280;10913;51.992;9.228;2022-07-30T12:23:57;100425.28;;;26.70;69.77
21504;BME280;10913;51.992;9.228;2022-07-30T12:26:25;100430.38;;;26.87;69.70
21504;BME280;10913;51.992;9.228;2022-07-30T12:28:51;100437.19;;;27.05;70.76
21504;BME280;10913;51.992;9.228;2022-07-30T12:31:19;100443.00;;;27.25;70.02
21504;BME280;10913;51.992;9.228;2022-07-30T12:33:44;100439.09;;;27.29;71.16
21504;BME280;10913;51.992;9.228;2022-07-30T12:36:22;100441.59;;;27.32;72.73
21504;BME280;10913;51.992;9.228;2022-07-30T12:38:49;100436.16;;;27.32;73.53
21504;BME280;10913;51.992;9.228;2022-07-30T12:41:16;100437.34;;;27.28;74.76
21504;BME280;10913;51.992;9.228;2022-07-30T12:43:50;100438.50;;;27.13;75.04
21504;BME280;10913;51.992;9.228;2022-07-30T12:46:26;100443.41;;;26.95;75.37
21504;BME280;10913;51.992;9.228;2022-07-30T12:48:55;100438.31;;;26.77;76.89
21504;BME280;10913;51.992;9.228;2022-07-30T12:51:24;100432.13;;;26.63;77.21
21504;BME280;10913;51.992;9.228;2022-07-30T12:53:51;100441.88;;;26.53;77.96
21504;BME280;10913;51.992;9.228;2022-07-30T12:56:22;100433.13;;;26.36;79.01
21504;BME280;10913;51.992;9.228;2022-07-30T12:58:48;100432.63;;;26.17;80.22
21504;BME280;10913;51.992;9.228;2022-07-30T13:01:13;100449.50;;;26.08;81.43
21504;BME280;10913;51.992;9.228;2022-07-30T13:03:39;100437.97;;;25.92;82.22
21504;BME280;10913;51.992;9.228;2022-07-30T13:06:18;100438.91;;;25.78;82.93
21504;BME280;10913;51.992;9.228;2022-07-30T13:11:15;100435.56;;;25.74;83.31
21504;BME280;10913;51.992;9.228;2022-07-30T13:13:40;100439.53;;;25.69;84.49
21504;BME280;10913;51.992;9.228;2022-07-30T13:16:06;100434.78;;;25.58;85.39
21504;BME280;10913;51.992;9.228;2022-07-30T13:18:34;100440.72;;;25.51;86.56
21504;BME280;10913;51.992;9.228;2022-07-30T13:21:00;100438.31;;;25.46;86.99
21504;BME280;10913;51.992;9.228;2022-07-30T13:23:26;100435.25;;;25.38;86.84
21504;BME280;10913;51.992;9.228;2022-07-30T13:25:52;100434.81;;;25.31;88.24